Time;durP1;ratioP1;P1;durP2;ratioP2;P2;SDS_P1;SDS_P2;PMS_P1;PMS_P2;Temp;Humidity;BMP_temperature;BMP_pressure;BME280_temperature;BME280_humidity;BME280_pressure;Samples;Min_cycle;Max_cycle;Signal;HPM_P1;HPM_P2
2022/04/14 00:03:40;;;;;;;2.80;0.90;;;13.80;99.20;;;;;;4906399;29;20044;-87
2022/04/14 00:06:27;;;;;;;3.70;1.08;;;13.70;99.70;;;;;;4900217;29;20032;-87
2022/04/14 00:09:13;;;;;;;4.25;0.98;;;13.70;99.90;;;;;;4900779;29;20052;-87
2022/04/14 00:12:07;;;;;;;2.40;1.00;;;13.60;99.90;;;;;;4900133;29;20025;-87
2022/04/14 00:14:54;;;;;;;3.73;1.20;;;13.50;99.90;;;;;;4901731;29;20028;-87
2022/04/14 00:17:35;;;;;;;3.00;1.08;;;13.50;99.90;;;;;;4903055;29;20173;-86
2022/04/14 00:20:31;;;;;;;3.10;1.23;;;13.60;99.90;;;;;;4883588;29;20033;-86
2022/04/14 00:23:03;;;;;;;2.38;0.85;;;13.50;99.90;;;;;;4882947;29;20107;-87
2022/04/14 00:25:43;;;;;;;3.47;1.20;;;13.50;99.90;;;;;;4908303;29;20494;-88
2022/04/14 00:28:12;;;;;;;2.28;0.95;;;13.50;99.90;;;;;;4900432;29;20040;-87
2022/04/14 00:30:47;;;;;;;2.95;1.10;;;13.40;99.90;;;;;;4901749;29;20033;-87
2022/04/14 00:33:17;;;;;;;4.18;1.23;;;13.30;99.90;;;;;;4902037;29;20032;-87
2022/04/14 00:36:09;;;;;;;3.45;1.15;;;13.30;99.90;;;;;;4892259;29;20021;-88
2022/04/14 00:38:37;;;;;;;4.05;1.45;;;13.20;99.90;;;;;;4898115;29;20083;-87
2022/04/14 00:41:03;;;;;;;3.45;1.50;;;13.20;99.90;;;;;;4897340;29;20021;-86
2022/04/14 00:43:34;;;;;;;4.03;1.20;;;13.10;99.90;;;;;;4897418;29;20054;-87
2022/04/14 00:46:05;;;;;;;3.17;1.38;;;13.10;99.90;;;;;;4907778;29;20032;-87
2022/04/14 00:48:38;;;;;;;4.75;1.48;;;13.10;99.90;;;;;;4906071;29;20024;-87
2022/04/14 00:51:24;;;;;;;4.60;1.45;;;13.10;99.90;;;;;;4902538;29;20693;-87
2022/04/14 00:53:50;;;;;;;5.03;1.45;;;13.10;99.90;;;;;;4899686;29;20203;-87
2022/04/14 00:56:16;;;;;;;2.97;1.40;;;13.10;99.90;;;;;;4902670;29;20060;-87
2022/04/14 00:58:42;;;;;;;3.85;1.45;;;13.10;99.90;;;;;;4903323;29;20028;-87
2022/04/14 01:01:08;;;;;;;4.53;1.90;;;13.00;99.90;;;;;;4901413;29;20047;-87
2022/04/14 01:03:35;;;;;;;3.42;1.50;;;13.00;99.90;;;;;;4902161;29;20096;-86
2022/04/14 01:06:03;;;;;;;4.82;1.65;;;13.00;99.90;;;;;;4903046;29;20039;-86
2022/04/14 01:08:37;;;;;;;3.35;1.58;;;13.00;99.90;;;;;;4907088;29;20028;-88
2022/04/14 01:11:04;;;;;;;6.18;1.75;;;12.90;99.90;;;;;;4905381;29;20047;-87
2022/04/14 01:14:10;;;;;;;5.50;1.73;;;13.00;99.90;;;;;;4906964;29;20035;-87
2022/04/14 01:16:56;;;;;;;3.78;1.38;;;12.90;99.90;;;;;;4908356;29;20056;-87
2022/04/14 01:19:25;;;;;;;3.83;1.40;;;12.90;99.90;;;;;;4920573;29;20033;-86
2022/04/14 01:22:52;;;;;;;3.53;1.63;;;12.90;99.90;;;;;;4926366;29;20127;-86
2022/04/14 01:25:18;;;;;;;4.63;1.35;;;12.80;99.90;;;;;;4926056;29;20032;-87
2022/04/14 01:28:00;;;;;;;5.78;1.45;;;12.70;99.90;;;;;;4911283;29;20109;-87
2022/04/14 01:30:29;;;;;;;3.28;1.30;;;12.80;99.90;;;;;;4914502;29;20035;-87
2022/04/14 01:32:57;;;;;;;4.28;1.20;;;12.70;99.90;;;;;;4904731;29;20040;-87
2022/04/14 01:35:23;;;;;;;3.92;1.30;;;12.80;99.90;;;;;;4905282;29;20069;-88
2022/04/14 01:37:50;;;;;;;4.93;1.40;;;12.80;99.90;;;;;;4905122;29;20033;-87
2022/04/14 01:40:16;;;;;;;4.38;1.77;;;12.70;99.90;;;;;;4920296;29;20037;-87
2022/04/14 01:43:06;;;;;;;6.35;1.58;;;12.70;99.90;;;;;;4902706;29;20088;-87
2022/04/14 01:45:46;;;;;;;4.60;1.88;;;12.70;99.90;;;;;;4905873;29;20028;-87
2022/04/14 01:48:12;;;;;;;5.30;1.80;;;12.70;99.90;;;;;;4907395;29;20036;-86
2022/04/14 01:50:54;;;;;;;3.80;1.70;;;12.70;99.90;;;;;;4905763;29;20385;-87
2022/04/14 01:53:22;;;;;;;3.25;1.40;;;12.60;99.90;;;;;;4904107;29;20033;-87
2022/04/14 01:55:47;;;;;;;4.93;1.98;;;12.60;99.90;;;;;;4910114;29;20191;-87
2022/04/14 01:58:35;;;;;;;3.35;1.38;;;12.50;99.90;;;;;;4900061;29;20036;-87
2022/04/14 02:01:18;;;;;;;3.53;1.52;;;12.60;99.90;;;;;;4902431;29;20029;-87
2022/04/14 02:04:02;;;;;;;4.88;1.67;;;12.50;99.90;;;;;;4901165;29;20033;-87
2022/04/14 02:06:32;;;;;;;3.78;1.40;;;12.50;99.90;;;;;;4899567;29;20428;-87
2022/04/14 02:08:57;;;;;;;4.55;1.48;;;12.50;99.90;;;;;;4917285;29;20244;-87
2022/04/14 02:11:23;;;;;;;3.47;1.30;;;12.50;99.90;;;;;;4903654;29;20329;-87
2022/04/14 02:13:54;;;;;;;8.60;1.40;;;12.30;99.90;;;;;;4904279;29;20028;-87
2022/04/14 02:16:20;;;;;;;4.55;1.83;;;12.30;99.90;;;;;;4904283;29;20037;-87
2022/04/14 02:18:46;;;;;;;4.18;1.45;;;12.30;99.90;;;;;;4903861;29;20056;-87
2022/04/14 02:21:21;;;;;;;4.13;1.70;;;12.30;99.90;;;;;;4905342;29;20032;-87
2022/04/14 02:23:47;;;;;;;4.53;1.77;;;12.30;99.90;;;;;;4895492;29;20040;-87
2022/04/14 02:26:23;;;;;;;3.83;1.60;;;12.30;99.90;;;;;;4901713;29;20113;-87
2022/04/14 02:28:58;;;;;;;4.20;1.60;;;12.30;99.90;;;;;;4903433;29;20051;-86
2022/04/14 02:31:33;;;;;;;3.40;1.20;;;12.20;99.90;;;;;;4904088;29;20036;-87
2022/04/14 02:39:41;;;;;;;4.30;1.65;;;12.00;99.90;;;;;;4888672;29;20071;-87
2022/04/14 02:42:26;;;;;;;5.30;1.75;;;12.10;99.90;;;;;;4904456;29;20029;-86
2022/04/14 02:45:19;;;;;;;3.28;1.48;;;12.10;99.90;;;;;;4919446;29;20032;-87
2022/04/14 02:48:00;;;;;;;6.55;1.52;;;12.10;99.90;;;;;;4904298;29;20032;-87
2022/04/14 02:50:29;;;;;;;5.18;1.63;;;12.20;99.90;;;;;;4918569;29;20032;-87
2022/04/14 02:52:57;;;;;;;4.70;1.90;;;12.10;99.90;;;;;;4919055;29;20526;-87
2022/04/14 02:55:43;;;;;;;4.97;1.65;;;12.10;99.90;;;;;;4906348;29;20029;-86
2022/04/14 02:58:08;;;;;;;4.20;1.80;;;12.00;99.90;;;;;;4918243;29;20595;-86
2022/04/14 03:00:40;;;;;;;4.28;1.30;;;12.00;99.90;;;;;;4915311;29;20028;-87
2022/04/14 03:03:08;;;;;;;3.85;2.08;;;12.00;99.90;;;;;;4903229;29;20028;-87
2022/04/14 03:05:36;;;;;;;5.00;1.77;;;11.90;99.90;;;;;;4918877;29;20699;-87
2022/04/14 03:08:29;;;;;;;4.93;1.70;;;11.90;99.90;;;;;;4908919;29;20103;-86
2022/04/14 03:10:55;;;;;;;5.30;1.95;;;11.90;99.90;;;;;;4910280;29;20020;-86
2022/04/14 03:13:26;;;;;;;6.05;1.73;;;11.80;99.90;;;;;;4910114;29;20483;-87
2022/04/14 03:15:54;;;;;;;4.47;1.70;;;11.80;99.90;;;;;;4904353;29;20076;-86
2022/04/14 03:18:30;;;;;;;4.57;1.63;;;11.70;99.90;;;;;;4886749;29;20041;-87
2022/04/14 03:21:15;;;;;;;6.18;1.95;;;11.80;99.90;;;;;;4898903;29;20055;-86
2022/04/14 03:23:43;;;;;;;4.07;1.70;;;11.70;99.90;;;;;;4900150;29;20060;-86
2022/04/14 03:26:13;;;;;;;5.25;2.13;;;11.70;99.90;;;;;;4902499;29;20108;-87
2022/04/14 03:28:39;;;;;;;4.35;1.67;;;11.70;99.90;;;;;;4904189;29;20040;-87
2022/04/14 03:31:12;;;;;;;4.40;1.80;;;11.60;99.90;;;;;;4905078;29;20399;-87
2022/04/14 03:33:40;;;;;;;3.70;1.65;;;11.60;99.90;;;;;;4911120;29;20357;-86
2022/04/14 03:36:10;;;;;;;4.47;1.90;;;11.50;99.90;;;;;;4886123;29;20066;-87
2022/04/14 03:38:53;;;;;;;4.55;1.98;;;11.50;99.90;;;;;;4911530;29;20064;-88
2022/04/14 03:41:24;;;;;;;6.18;2.13;;;11.30;99.90;;;;;;4902207;29;20061;-87
2022/04/14 03:43:50;;;;;;;3.67;1.77;;;11.50;99.90;;;;;;4914830;29;20135;-87
2022/04/14 03:46:39;;;;;;;;;;;;;;;;;;;;;
2022/04/14 03:49:18;;;;;;;5.18;1.90;;;11.40;99.90;;;;;;4896015;29;20505;-88
2022/04/14 03:51:46;;;;;;;7.65;2.05;;;11.40;99.90;;;;;;4887984;29;20028;-87
2022/04/14 03:54:15;;;;;;;6.97;2.22;;;11.40;99.90;;;;;;4905466;29;20036;-86
2022/04/14 03:59:58;;;;;;;5.20;2.10;;;11.30;99.90;;;;;;4913420;29;20040;-87
2022/04/14 04:02:27;;;;;;;4.07;2.05;;;11.30;99.90;;;;;;4897565;29;20315;-86
2022/04/14 04:04:55;;;;;;;4.88;2.15;;;11.20;99.90;;;;;;4913661;29;20037;-87
2022/04/14 04:07:42;;;;;;;4.75;2.22;;;11.20;99.90;;;;;;4916164;29;20047;-88
2022/04/14 04:10:07;;;;;;;9.45;2.80;;;11.20;99.90;;;;;;4901246;29;20044;-87
2022/04/14 04:12:40;;;;;;;5.15;2.50;;;11.20;99.90;;;;;;4901277;29;20096;-88
2022/04/14 04:15:17;;;;;;;6.28;2.67;;;11.20;99.90;;;;;;4918105;29;20048;-88
2022/04/14 04:17:46;;;;;;;7.15;3.08;;;11.20;99.90;;;;;;4915452;29;20058;-87
2022/04/14 04:20:12;;;;;;;5.28;2.60;;;11.10;99.90;;;;;;4917259;29;20032;-86
2022/04/14 04:22:45;;;;;;;5.95;2.88;;;11.10;99.90;;;;;;4903020;29;20089;-87
2022/04/14 04:25:34;;;;;;;9.10;3.25;;;11.10;99.90;;;;;;4918897;29;20154;-86
2022/04/14 04:28:18;;;;;;;5.45;2.55;;;11.10;99.90;;;;;;4900675;29;20057;-88
2022/04/14 04:30:44;;;;;;;5.35;2.42;;;11.00;99.90;;;;;;4882427;29;20602;-87
2022/04/14 04:33:18;;;;;;;6.45;2.97;;;11.10;99.90;;;;;;4883152;29;20060;-87
2022/04/14 04:35:46;;;;;;;6.20;3.05;;;10.90;99.90;;;;;;4883411;29;20025;-87
2022/04/14 04:38:12;;;;;;;5.78;2.70;;;11.00;99.90;;;;;;4885199;29;20109;-87
2022/04/14 04:40:41;;;;;;;6.65;3.17;;;11.00;99.90;;;;;;4891463;29;20028;-86
2022/04/14 04:43:08;;;;;;;6.38;3.05;;;10.90;99.90;;;;;;4901376;29;20020;-87
2022/04/14 04:45:45;;;;;;;;;;;;;;;;;;;;;
2022/04/14 04:48:32;;;;;;;5.07;2.70;;;11.00;99.90;;;;;;4903706;29;20108;-87
2022/04/14 04:51:03;;;;;;;7.95;3.00;;;10.90;99.90;;;;;;4903978;29;20278;-86
2022/04/14 04:53:52;;;;;;;;;;;;;;;;;;;;;
2022/04/14 04:56:29;;;;;;;9.38;3.83;;;10.90;99.90;;;;;;4902233;29;20615;-86
2022/04/14 04:59:09;;;;;;;8.80;3.38;;;10.90;99.90;;;;;;4898390;29;20028;-87
2022/04/14 05:01:37;;;;;;;8.20;3.53;;;11.00;99.90;;;;;;4899623;29;20060;-86
2022/04/14 05:04:29;;;;;;;8.77;3.50;;;11.10;99.90;;;;;;4900865;29;20033;-87
2022/04/14 05:07:02;;;;;;;8.73;4.38;;;11.00;99.90;;;;;;4900688;29;20400;-87
2022/04/14 05:09:27;;;;;;;6.20;3.28;;;11.00;99.90;;;;;;4891273;29;20029;-86
2022/04/14 05:12:21;;;;;;;5.60;3.38;;;11.10;99.90;;;;;;4898294;29;20396;-87
2022/04/14 05:17:16;;;;;;;9.73;4.20;;;11.20;99.90;;;;;;4905660;29;20055;-89
2022/04/14 05:19:41;;;;;;;12.65;4.05;;;11.20;99.90;;;;;;4915087;29;20024;-89
2022/04/14 05:22:10;;;;;;;7.43;3.58;;;11.30;99.90;;;;;;4931797;29;20035;-90
2022/04/14 05:24:36;;;;;;;7.40;3.75;;;11.30;99.90;;;;;;4919226;29;20043;-90
2022/04/14 05:27:01;;;;;;;7.75;3.63;;;11.40;99.90;;;;;;4932062;29;20406;-89
2022/04/14 05:29:37;;;;;;;;;;;;;;;;;;;;;
2022/04/14 05:32:06;;;;;;;12.50;4.32;;;11.50;99.90;;;;;;4921138;29;20038;-89
2022/04/14 05:34:32;;;;;;;9.50;4.75;;;11.60;99.90;;;;;;4930993;29;20028;-89
2022/04/14 05:37:01;;;;;;;9.35;3.85;;;11.70;99.90;;;;;;4924921;29;20028;-90
2022/04/14 05:39:44;;;;;;;6.63;4.00;;;11.70;99.90;;;;;;4923467;29;20589;-90
2022/04/14 05:42:10;;;;;;;9.25;4.03;;;11.80;99.90;;;;;;4924362;29;20063;-89
2022/04/14 05:44:43;;;;;;;10.57;4.38;;;11.80;99.90;;;;;;4945176;29;20039;-89
2022/04/14 05:47:17;;;;;;;7.82;3.95;;;12.00;99.90;;;;;;4925797;29;20027;-88
2022/04/14 05:50:08;;;;;;;8.68;3.92;;;12.00;99.90;;;;;;4928053;29;20032;-89
2022/04/14 05:52:44;;;;;;;7.55;4.10;;;12.10;99.90;;;;;;4932198;29;20036;-89
2022/04/14 05:55:09;;;;;;;12.48;3.95;;;12.10;99.90;;;;;;4934214;29;20023;-90
2022/04/14 05:58:16;;;;;;;11.05;3.95;;;12.30;99.90;;;;;;4922868;29;20697;-89
2022/04/14 06:01:13;;;;;;;;;;;;;;;;;;;;;
2022/04/14 06:03:59;;;;;;;;;;;;;;;;;;;;;
2022/04/14 06:06:40;;;;;;;9.63;4.22;;;12.50;99.90;;;;;;4925104;29;20089;-89
2022/04/14 06:09:18;;;;;;;;;;;;;;;;;;;;;
2022/04/14 06:21:14;;;;;;;;;;;;;;;;;;;;;
2022/04/14 06:24:12;;;;;;;15.38;6.75;;;13.00;99.90;;;;;;4871808;29;20060;-90
2022/04/14 06:26:52;;;;;;;12.15;6.97;;;13.10;99.90;;;;;;4898313;29;20041;-89
2022/04/14 06:29:31;;;;;;;10.85;6.40;;;13.20;99.90;;;;;;4875660;29;20057;-88
2022/04/14 06:40:13;;;;;;;14.77;7.72;;;13.60;99.90;;;;;;1326300;26;20126;-89
2022/04/14 06:43:32;;;;;;;13.68;7.22;;;13.70;99.90;;;;;;4957452;28;20073;-89
2022/04/14 06:54:11;;;;;;;14.32;7.43;;;14.00;99.90;;;;;;4928719;23;20060;-89
2022/04/14 06:56:40;;;;;;;12.10;7.00;;;14.10;99.90;;;;;;4955245;23;20051;-90
2022/04/14 06:59:08;;;;;;;13.57;7.28;;;14.20;99.90;;;;;;4964818;28;20029;-89
2022/04/14 07:01:34;;;;;;;11.98;6.75;;;14.40;99.90;;;;;;4963927;28;20058;-88
2022/04/14 07:03:59;;;;;;;16.10;7.13;;;14.60;99.90;;;;;;4963686;28;20057;-87
2022/04/14 07:06:25;;;;;;;13.93;7.85;;;14.50;99.90;;;;;;4963253;28;20022;-87
2022/04/14 07:08:51;;;;;;;15.00;7.07;;;14.80;99.90;;;;;;4959107;28;20399;-87
2022/04/14 07:11:19;;;;;;;12.57;6.68;;;14.80;99.90;;;;;;4960639;28;20066;-88
2022/04/14 07:13:46;;;;;;;14.43;6.97;;;14.80;99.90;;;;;;4958940;28;20101;-87
2022/04/14 07:16:15;;;;;;;13.32;7.30;;;14.90;99.90;;;;;;4957098;28;20962;-87
2022/04/14 07:18:49;;;;;;;13.02;6.50;;;15.00;99.90;;;;;;4955491;28;20027;-87
2022/04/14 07:21:17;;;;;;;12.73;6.15;;;15.10;99.90;;;;;;4960682;28;20034;-87
2022/04/14 07:23:42;;;;;;;13.30;6.50;;;15.20;99.90;;;;;;4958622;28;20085;-88
2022/04/14 07:26:11;;;;;;;12.88;6.97;;;15.00;99.90;;;;;;4960790;28;20557;-87
2022/04/14 07:28:36;;;;;;;11.40;6.32;;;15.30;99.90;;;;;;4953409;28;20031;-88
2022/04/14 07:31:02;;;;;;;13.65;6.57;;;15.30;99.90;;;;;;4959759;28;20041;-89
2022/04/14 07:33:30;;;;;;;11.98;6.10;;;15.40;99.90;;;;;;4957818;28;20023;-87
2022/04/14 07:35:56;;;;;;;10.60;6.03;;;15.50;99.90;;;;;;4957641;28;20720;-88
2022/04/14 07:38:21;;;;;;;12.32;6.40;;;15.50;99.90;;;;;;4959069;28;20118;-87
2022/04/14 07:40:47;;;;;;;12.88;6.72;;;15.50;99.90;;;;;;4956473;28;20112;-89
2022/04/14 07:43:13;;;;;;;10.20;6.13;;;15.50;99.90;;;;;;4962051;28;20401;-87
2022/04/14 07:45:42;;;;;;;13.05;6.07;;;15.60;99.90;;;;;;4960994;28;20054;-87
2022/04/14 07:48:09;;;;;;;10.18;6.03;;;15.70;99.90;;;;;;4956005;28;20078;-87
2022/04/14 07:50:34;;;;;;;10.63;5.90;;;15.80;99.90;;;;;;4961894;28;20083;-86
2022/04/14 07:53:00;;;;;;;11.93;6.00;;;15.90;99.90;;;;;;4960407;28;20039;-87
2022/04/14 07:55:28;;;;;;;11.13;6.05;;;16.00;99.90;;;;;;4963259;28;20117;-86
2022/04/14 07:57:56;;;;;;;11.90;6.20;;;16.20;99.90;;;;;;4958315;28;20055;-87
2022/04/14 08:00:23;;;;;;;10.00;5.40;;;16.20;99.90;;;;;;4957308;28;20038;-87
2022/04/14 08:02:56;;;;;;;10.80;5.97;;;16.40;99.90;;;;;;4962958;28;20026;-86
2022/04/14 08:05:29;;;;;;;13.32;6.68;;;16.40;99.90;;;;;;4961167;28;20389;-86
2022/04/14 08:07:56;;;;;;;10.50;5.72;;;16.60;99.90;;;;;;4957115;28;20035;-86
2022/04/14 08:10:22;;;;;;;9.27;5.53;;;16.60;99.90;;;;;;4952721;28;20066;-86
2022/04/14 08:12:47;;;;;;;11.63;5.85;;;16.60;99.90;;;;;;4960484;28;20054;-87
2022/04/14 08:15:14;;;;;;;9.85;5.65;;;16.70;99.90;;;;;;4954750;28;20015;-87
2022/04/14 08:17:49;;;;;;;9.95;5.80;;;16.90;99.90;;;;;;4956320;28;20027;-88
2022/04/14 08:20:16;;;;;;;9.73;5.93;;;16.90;99.90;;;;;;4949273;28;20032;-87
2022/04/14 08:22:49;;;;;;;11.65;5.90;;;17.00;99.90;;;;;;4961519;28;20073;-86
2022/04/14 08:25:21;;;;;;;12.15;6.13;;;17.10;99.90;;;;;;4961141;28;20035;-87
2022/04/14 08:27:50;;;;;;;10.48;5.28;;;17.10;99.90;;;;;;4954799;28;20065;-89
2022/04/14 08:30:20;;;;;;;10.25;5.78;;;17.30;99.90;;;;;;4969534;28;20397;-88
2022/04/14 08:32:47;;;;;;;10.43;5.50;;;17.20;99.90;;;;;;4955215;28;20166;-87
2022/04/14 08:35:14;;;;;;;10.40;5.80;;;17.40;99.90;;;;;;4959045;28;20102;-87
2022/04/14 08:37:40;;;;;;;9.38;5.32;;;17.50;99.90;;;;;;4959953;28;20113;-88
2022/04/14 08:40:09;;;;;;;10.15;5.53;;;17.60;99.90;;;;;;4953725;28;20095;-86
2022/04/14 08:42:41;;;;;;;10.73;5.78;;;17.60;99.90;;;;;;4962895;28;20038;-88
2022/04/14 08:45:14;;;;;;;10.00;5.38;;;17.40;99.90;;;;;;4964035;28;20027;-89
2022/04/14 08:47:40;;;;;;;10.63;5.65;;;17.80;99.90;;;;;;4953403;28;20027;-90
2022/04/14 08:50:12;;;;;;;11.73;5.78;;;18.00;99.90;;;;;;4958090;28;20031;-89
2022/04/14 08:52:39;;;;;;;11.23;5.63;;;18.10;99.90;;;;;;4967466;28;20027;-89
2022/04/14 08:55:08;;;;;;;9.30;5.05;;;18.30;99.90;;;;;;4972120;28;20397;-89
2022/04/14 08:57:36;;;;;;;9.48;5.72;;;18.50;99.90;;;;;;4952210;28;20742;-90
2022/04/14 09:00:06;;;;;;;12.20;5.45;;;18.60;99.90;;;;;;4949348;29;20102;-90
2022/04/14 09:02:33;;;;;;;13.05;4.78;;;18.70;99.90;;;;;;4965691;28;20127;-89
2022/04/14 09:04:59;;;;;;;10.75;5.53;;;18.80;99.90;;;;;;4948140;28;20103;-89
2022/04/14 09:07:51;;;;;;;10.07;5.25;;;18.80;99.90;;;;;;4967971;28;20102;-90
2022/04/14 09:10:19;;;;;;;9.80;5.60;;;19.10;99.90;;;;;;4944157;29;20119;-89
2022/04/14 09:12:56;;;;;;;11.07;5.35;;;19.20;99.90;;;;;;4975505;28;20019;-91
2022/04/14 09:15:23;;;;;;;10.18;5.75;;;19.30;99.90;;;;;;4962205;28;20041;-90
2022/04/14 09:17:49;;;;;;;10.30;5.85;;;19.40;99.90;;;;;;4958168;28;20027;-90
2022/04/14 09:20:34;;;;;;;8.95;5.40;;;19.60;99.90;;;;;;4963889;28;20093;-90
2022/04/14 09:23:11;;;;;;;12.05;5.82;;;19.40;99.90;;;;;;4958890;28;20027;-90
2022/04/14 09:25:39;;;;;;;9.52;5.20;;;19.30;99.90;;;;;;4956098;28;20115;-90
2022/04/14 09:28:12;;;;;;;8.77;5.20;;;19.50;99.90;;;;;;4961126;28;20030;-90
2022/04/14 09:30:39;;;;;;;8.63;5.03;;;19.70;99.90;;;;;;4958409;28;20110;-90
2022/04/14 09:33:05;;;;;;;9.95;5.80;;;19.90;99.90;;;;;;4962100;28;20544;-90
2022/04/14 09:35:32;;;;;;;10.52;5.38;;;20.20;99.90;;;;;;4964756;28;20072;-91
2022/04/14 09:38:07;;;;;;;8.15;4.50;;;20.10;99.90;;;;;;4964188;28;20098;-91
2022/04/14 09:40:33;;;;;;;10.88;5.70;;;20.20;99.90;;;;;;4963744;28;20023;-91
2022/04/14 09:43:02;;;;;;;9.30;5.57;;;19.60;99.90;;;;;;4961523;28;20031;-91
2022/04/14 09:45:29;;;;;;;9.32;5.28;;;19.80;99.90;;;;;;4962845;28;20023;-91
2022/04/14 09:48:26;;;;;;;8.73;4.70;;;19.80;99.90;;;;;;4961797;28;20023;-91
2022/04/14 09:50:52;;;;;;;9.85;5.10;;;20.10;99.90;;;;;;4973547;28;20106;-90
2022/04/14 09:53:19;;;;;;;7.85;4.43;;;20.40;99.90;;;;;;4954338;29;20481;-90
2022/04/14 09:55:53;;;;;;;8.10;4.95;;;20.50;99.90;;;;;;4954455;29;20030;-92
2022/04/14 09:58:24;;;;;;;9.48;4.82;;;20.50;99.90;;;;;;4950847;29;20039;-92
2022/04/14 10:00:58;;;;;;;11.70;4.90;;;20.30;99.90;;;;;;4948300;28;20094;-91
2022/04/14 10:03:27;;;;;;;9.02;4.72;;;20.50;99.90;;;;;;4958319;28;20031;-91
2022/04/14 10:05:59;;;;;;;9.95;5.00;;;20.50;99.90;;;;;;5014340;23;20040;-90
2022/04/14 10:08:25;;;;;;;9.60;5.07;;;20.60;99.90;;;;;;4942761;29;20125;-88
2022/04/14 10:11:04;;;;;;;8.57;4.68;;;20.80;99.90;;;;;;4911790;29;20027;-90
2022/04/14 10:13:38;;;;;;;8.88;4.10;;;20.70;99.90;;;;;;4929729;29;20549;-89
2022/04/14 10:16:05;;;;;;;8.10;4.78;;;20.80;99.90;;;;;;4930192;29;20032;-90
2022/04/14 10:18:41;;;;;;;8.18;4.55;;;20.90;99.90;;;;;;4939761;23;20075;-87
2022/04/14 10:21:07;;;;;;;8.27;4.80;;;20.90;99.90;;;;;;4938360;29;20023;-88
2022/04/14 10:23:33;;;;;;;10.63;5.15;;;21.10;99.90;;;;;;4938234;29;20020;-86
2022/04/14 10:26:03;;;;;;;9.60;4.97;;;21.20;99.90;;;;;;4939915;29;20790;-87
2022/04/14 10:28:29;;;;;;;8.27;4.80;;;21.20;99.90;;;;;;4926290;29;20064;-86
2022/04/14 10:30:55;;;;;;;8.27;4.50;;;21.20;99.90;;;;;;4923992;29;20032;-87
2022/04/14 10:33:22;;;;;;;10.10;4.47;;;21.10;99.80;;;;;;4923089;29;20166;-88
2022/04/14 10:35:49;;;;;;;7.50;4.10;;;21.30;99.90;;;;;;4931999;29;20078;-88
2022/04/14 10:38:31;;;;;;;8.80;4.15;;;21.30;99.40;;;;;;4939863;29;20028;-89
2022/04/14 10:41:18;;;;;;;8.20;4.15;;;21.50;99.10;;;;;;4940858;29;20028;-89
2022/04/14 10:43:47;;;;;;;7.25;4.43;;;21.70;98.40;;;;;;4921359;29;20032;-89
2022/04/14 10:46:15;;;;;;;9.75;4.15;;;21.80;98.20;;;;;;4931940;29;20019;-90
2022/04/14 10:48:47;;;;;;;10.43;5.13;;;21.80;98.20;;;;;;4936190;29;20075;-89
2022/04/14 10:51:24;;;;;;;10.50;5.13;;;21.80;98.30;;;;;;4936694;29;20097;-89
2022/04/14 10:54:15;;;;;;;9.38;4.72;;;21.80;98.70;;;;;;4932569;29;20020;-89
2022/04/14 10:56:46;;;;;;;10.18;4.40;;;21.90;98.90;;;;;;4932979;29;20043;-88
2022/04/14 10:59:40;;;;;;;8.20;4.80;;;21.90;98.70;;;;;;4938804;29;20034;-88
2022/04/14 11:02:07;;;;;;;8.98;4.25;;;22.00;99.00;;;;;;4938768;29;20039;-89
2022/04/14 11:04:42;;;;;;;7.70;4.60;;;22.20;98.30;;;;;;4930013;29;20058;-88
2022/04/14 11:07:15;;;;;;;8.45;4.55;;;22.30;98.00;;;;;;4938062;29;20039;-88
2022/04/14 11:09:47;;;;;;;6.35;4.03;;;22.30;97.90;;;;;;4939112;29;20035;-87
2022/04/14 11:12:21;;;;;;;8.27;4.35;;;22.50;97.60;;;;;;4939405;29;20030;-88
2022/04/14 11:14:51;;;;;;;7.85;4.50;;;22.60;96.90;;;;;;4927577;29;20058;-87
2022/04/14 11:17:40;;;;;;;13.20;5.20;;;22.50;96.30;;;;;;4922622;29;20028;-88
2022/04/14 11:20:30;;;;;;;8.13;4.80;;;22.20;96.80;;;;;;4936853;29;20032;-89
2022/04/14 11:23:18;;;;;;;7.07;4.47;;;22.30;97.00;;;;;;4941955;29;20086;-88
2022/04/14 11:25:50;;;;;;;8.43;4.45;;;22.30;97.30;;;;;;4936981;29;20039;-88
2022/04/14 11:28:19;;;;;;;9.55;5.05;;;22.30;97.40;;;;;;4921445;29;20024;-89
2022/04/14 11:30:47;;;;;;;10.60;5.25;;;22.40;96.70;;;;;;4921140;29;20411;-88
2022/04/14 11:33:14;;;;;;;10.23;5.45;;;22.40;96.60;;;;;;4922101;29;20111;-89
2022/04/14 11:35:47;;;;;;;8.27;4.78;;;22.30;96.50;;;;;;4936626;29;20027;-88
2022/04/14 11:38:57;;;;;;;9.85;5.40;;;22.60;96.40;;;;;;4925707;29;20107;-90
2022/04/14 11:41:44;;;;;;;11.05;4.88;;;22.60;95.80;;;;;;4938259;29;20052;-90
2022/04/14 11:44:22;;;;;;;6.93;4.13;;;22.80;95.90;;;;;;4920541;29;20087;-88
2022/04/14 11:46:55;;;;;;;9.95;4.40;;;22.90;95.20;;;;;;4933118;29;20537;-87
2022/04/14 11:49:26;;;;;;;8.43;4.13;;;23.00;94.90;;;;;;4934670;29;20038;-89
2022/04/14 11:51:54;;;;;;;7.80;4.55;;;23.00;94.90;;;;;;4939587;29;20023;-88
2022/04/14 11:54:34;;;;;;;7.53;4.07;;;23.20;94.20;;;;;;4938276;29;20016;-88
2022/04/14 11:57:10;;;;;;;10.70;4.72;;;23.20;94.20;;;;;;4936280;29;20024;-89
2022/04/14 12:00:10;;;;;;;12.48;5.47;;;23.10;93.90;;;;;;4933709;29;20032;-89
2022/04/14 12:02:44;;;;;;;8.18;5.60;;;23.30;94.00;;;;;;4937939;29;20087;-88
2022/04/14 12:05:12;;;;;;;8.55;5.35;;;23.20;94.50;;;;;;4937635;29;20035;-88
2022/04/14 12:07:41;;;;;;;9.65;5.15;;;22.90;94.70;;;;;;4936899;29;20032;-88
2022/04/14 12:10:17;;;;;;;8.73;4.93;;;23.00;94.60;;;;;;4938564;29;20020;-87
2022/04/14 12:13:04;;;;;;;9.75;4.55;;;23.20;94.90;;;;;;4938928;29;20035;-87
2022/04/14 12:15:30;;;;;;;8.77;4.90;;;23.10;94.90;;;;;;4938337;29;20031;-88
2022/04/14 12:18:55;;;;;;;;;;;;;;;;;;;;;
2022/04/14 12:21:27;;;;;;;7.47;4.75;;;23.60;94.40;;;;;;4932075;29;20138;-89
2022/04/14 12:23:53;;;;;;;8.82;4.78;;;23.70;94.70;;;;;;4937718;29;20026;-88
2022/04/14 12:26:28;;;;;;;7.53;4.47;;;23.50;94.30;;;;;;4939579;29;20478;-89
2022/04/14 12:31:54;;;;;;;9.13;5.20;;;23.30;94.50;;;;;;4936235;29;20079;-88
2022/04/14 12:34:32;;;;;;;10.07;5.55;;;23.50;94.50;;;;;;4935679;29;20398;-88
2022/04/14 12:37:19;;;;;;;9.13;4.82;;;23.60;94.30;;;;;;4921485;29;20073;-88
2022/04/14 12:40:09;;;;;;;8.85;4.82;;;23.70;94.30;;;;;;4922402;29;20027;-89
2022/04/14 12:42:36;;;;;;;10.90;6.07;;;24.00;94.30;;;;;;4927199;29;20506;-87
2022/04/14 12:45:07;;;;;;;9.68;5.38;;;24.00;94.00;;;;;;4922048;29;20051;-87
2022/04/14 12:47:38;;;;;;;9.27;5.28;;;24.10;93.80;;;;;;4922659;29;20032;-88
2022/04/14 12:50:39;;;;;;;;;;;24.10;93.90;;;;;;4934907;29;20027;-88
2022/04/14 12:53:10;;;;;;;7.53;4.65;;;24.10;93.70;;;;;;4927817;29;19907;-89
2022/04/14 12:55:49;;;;;;;9.77;5.38;;;24.20;93.60;;;;;;4937808;29;20028;-90
2022/04/14 12:58:38;;;;;;;8.10;4.15;;;24.50;93.30;;;;;;4942447;29;21633;-89
2022/04/14 13:01:12;;;;;;;8.80;4.80;;;24.50;92.70;;;;;;4939145;29;20059;-89
2022/04/14 13:03:56;;;;;;;8.88;4.82;;;24.50;92.30;;;;;;4938142;29;20251;-88
2022/04/14 13:06:24;;;;;;;9.10;5.45;;;24.30;92.70;;;;;;4940406;29;20490;-89
2022/04/14 13:09:12;;;;;;;9.48;4.53;;;24.50;92.80;;;;;;4991990;23;20048;-89
2022/04/14 13:12:10;;;;;;;8.90;4.80;;;24.30;93.10;;;;;;4918464;29;20051;-88
2022/04/14 13:15:15;;;;;;;7.65;4.43;;;24.40;93.00;;;;;;4911162;29;20038;-88
2022/04/14 13:17:44;;;;;;;10.50;5.43;;;24.50;92.70;;;;;;4914143;29;20043;-89
2022/04/14 13:20:24;;;;;;;7.63;4.63;;;24.70;92.70;;;;;;4913080;29;20036;-90
2022/04/14 13:23:10;;;;;;;9.50;5.22;;;24.90;92.40;;;;;;4903418;29;20033;-89
2022/04/14 13:52:28;;;;;;;10.65;5.70;;;23.80;93.20;;;;;;4940607;29;20054;-88
2022/04/14 13:54:59;;;;;;;9.13;5.18;;;24.10;93.20;;;;;;4944206;28;20028;-88
2022/04/14 13:57:38;;;;;;;9.48;5.40;;;24.30;93.00;;;;;;4963773;28;20038;-88
2022/04/14 14:00:07;;;;;;;11.00;6.05;;;24.30;92.60;;;;;;4939752;29;20036;-88
2022/04/14 14:02:33;;;;;;;8.40;5.20;;;24.30;92.70;;;;;;4943087;29;20027;-89
2022/04/14 14:05:04;;;;;;;10.18;5.38;;;24.50;92.70;;;;;;4950819;28;20538;-88
2022/04/14 14:07:33;;;;;;;10.98;6.10;;;24.30;92.60;;;;;;4936706;29;20032;-88
2022/04/14 14:10:04;;;;;;;9.07;5.75;;;24.40;93.30;;;;;;4935883;29;20079;-88
2022/04/14 14:12:33;;;;;;;11.25;6.20;;;24.60;92.50;;;;;;4932252;29;20028;-89
2022/04/14 14:15:02;;;;;;;9.38;5.50;;;24.50;92.50;;;;;;4942255;29;20050;-88
2022/04/14 14:17:38;;;;;;;9.68;5.35;;;24.60;92.50;;;;;;4934427;29;20023;-89
2022/04/14 14:20:16;;;;;;;10.70;5.85;;;24.70;92.20;;;;;;4937742;29;20028;-89
2022/04/14 14:22:49;;;;;;;9.25;5.75;;;24.60;92.10;;;;;;4930490;29;20068;-88
2022/04/14 14:25:14;;;;;;;9.32;5.35;;;24.50;92.30;;;;;;4934297;29;20032;-88
2022/04/14 14:28:01;;;;;;;9.73;5.40;;;24.50;92.60;;;;;;4938909;29;20039;-89
2022/04/14 14:31:25;;;;;;;;;;;;;;;;;;;;;
2022/04/14 14:34:52;;;;;;;7.85;4.95;;;24.60;91.80;;;;;;4924445;29;20575;-90
2022/04/14 14:41:02;;;;;;;;;;;;;;;;;;;;;
2022/04/14 14:43:39;;;;;;;11.43;5.75;;;24.90;90.90;;;;;;4884747;29;20136;-89
2022/04/14 14:46:34;;;;;;;7.95;4.50;;;25.00;90.70;;;;;;4908472;29;20079;-90
2022/04/14 14:55:45;;;;;;;8.23;5.50;;;24.90;90.10;;;;;;4892356;29;20095;-91